sensor_id;sensor_type;location;lat;lon;timestamp;pressure;altitude;pressure_sealevel;temperature;humidity
68075;BME280;54864;52.002;5.468;2022-07-29T00:00:18;59548.63;;;-143.24;100.00
68075;BME280;54864;52.002;5.468;2022-07-29T00:01:41;59548.63;;;-143.24;100.00
68075;BME280;54864;52.002;5.468;2022-07-29T00:03:03;59548.63;;;-143.24;100.00
68075;BME280;54864;52.002;5.468;2022-07-29T00:04:25;59548.63;;;-143.24;100.00
68075;BME280;54864;52.002;5.468;2022-07-29T00:05:47;59548.63;;;-143.24;100.00
68075;BME280;54864;52.002;5.468;2022-07-29T00:07:08;59548.63;;;-143.24;100.00
68075;BME280;54864;52.002;5.468;2022-07-29T00:08:31;59548.63;;;-143.24;100.00
68075;BME280;54864;52.002;5.468;2022-07-29T00:09:52;59548.63;;;-143.24;100.00
68075;BME280;54864;52.002;5.468;2022-07-29T00:11:14;59548.63;;;-143.24;100.00
68075;BME280;54864;52.002;5.468;2022-07-29T00:12:36;59548.63;;;-143.24;100.00
68075;BME280;54864;52.002;5.468;2022-07-29T00:13:58;59548.63;;;-143.24;100.00
68075;BME280;54864;52.002;5.468;2022-07-29T00:15:20;59548.63;;;-143.24;100.00
68075;BME280;54864;52.002;5.468;2022-07-29T00:16:42;59548.63;;;-143.24;100.00
68075;BME280;54864;52.002;5.468;2022-07-29T00:18:04;59548.63;;;-143.24;100.00
68075;BME280;54864;52.002;5.468;2022-07-29T00:19:25;59548.63;;;-143.24;100.00
68075;BME280;54864;52.002;5.468;2022-07-29T00:20:47;59548.63;;;-143.24;100.00
68075;BME280;54864;52.002;5.468;2022-07-29T00:22:09;59548.63;;;-143.24;100.00
68075;BME280;54864;52.002;5.468;2022-07-29T00:23:33;59548.63;;;-143.24;100.00
68075;BME280;54864;52.002;5.468;2022-07-29T00:24:54;59548.63;;;-143.24;100.00
68075;BME280;54864;52.002;5.468;2022-07-29T00:26:16;59548.63;;;-143.24;100.00
68075;BME280;54864;52.002;5.468;2022-07-29T00:27:37;59548.63;;;-143.24;100.00
68075;BME280;54864;52.002;5.468;2022-07-29T00:28:59;59548.63;;;-143.24;100.00
68075;BME280;54864;52.002;5.468;2022-07-29T00:30:20;59548.63;;;-143.24;100.00
68075;BME280;54864;52.002;5.468;2022-07-29T00:31:42;59548.63;;;-143.24;100.00
68075;BME280;54864;52.002;5.468;2022-07-29T00:33:03;59548.63;;;-143.24;100.00
68075;BME280;54864;52.002;5.468;2022-07-29T00:34:25;59548.63;;;-143.24;100.00
68075;BME280;54864;52.002;5.468;2022-07-29T00:36:05;59548.63;;;-143.24;100.00
68075;BME280;54864;52.002;5.468;2022-07-29T00:37:26;59548.63;;;-143.24;100.00
68075;BME280;54864;52.002;5.468;2022-07-29T00:38:50;59548.63;;;-143.24;100.00
68075;BME280;54864;52.002;5.468;2022-07-29T00:40:12;59548.63;;;-143.24;100.00
68075;BME280;54864;52.002;5.468;2022-07-29T00:41:33;59548.63;;;-143.24;100.00
68075;BME280;54864;52.002;5.468;2022-07-29T00:42:55;59548.63;;;-143.24;100.00
68075;BME280;54864;52.002;5.468;2022-07-29T00:44:16;59548.63;;;-143.24;100.00
68075;BME280;54864;52.002;5.468;2022-07-29T00:45:38;59548.63;;;-143.24;100.00
68075;BME280;54864;52.002;5.468;2022-07-29T00:47:00;59548.63;;;-143.24;100.00
68075;BME280;54864;52.002;5.468;2022-07-29T00:48:21;59548.63;;;-143.24;100.00
68075;BME280;54864;52.002;5.468;2022-07-29T00:49:43;59548.63;;;-143.24;100.00
68075;BME280;54864;52.002;5.468;2022-07-29T00:51:05;59548.63;;;-143.24;100.00
68075;BME280;54864;52.002;5.468;2022-07-29T00:52:30;59548.63;;;-143.24;100.00
68075;BME280;54864;52.002;5.468;2022-07-29T00:53:53;59548.63;;;-143.24;100.00
68075;BME280;54864;52.002;5.468;2022-07-29T00:55:16;59548.63;;;-143.24;100.00
68075;BME280;54864;52.002;5.468;2022-07-29T00:56:37;59548.63;;;-143.24;100.00
68075;BME280;54864;52.002;5.468;2022-07-29T00:57:59;59548.63;;;-143.24;100.00
68075;BME280;54864;52.002;5.468;2022-07-29T00:59:21;59548.63;;;-143.24;100.00
68075;BME280;54864;52.002;5.468;2022-07-29T01:00:42;59548.63;;;-143.24;100.00
68075;BME280;54864;52.002;5.468;2022-07-29T01:02:04;59548.63;;;-143.24;100.00
68075;BME280;54864;52.002;5.468;2022-07-29T01:03:26;59548.63;;;-143.24;100.00
68075;BME280;54864;52.002;5.468;2022-07-29T01:04:48;59548.63;;;-143.24;100.00
68075;BME280;54864;52.002;5.468;2022-07-29T01:06:10;59548.63;;;-143.24;100.00
68075;BME280;54864;52.002;5.468;2022-07-29T01:07:34;59548.63;;;-143.24;100.00
68075;BME280;54864;52.002;5.468;2022-07-29T01:08:57;59548.63;;;-143.24;100.00
68075;BME280;54864;52.002;5.468;2022-07-29T01:10:21;59548.63;;;-143.24;100.00
68075;BME280;54864;52.002;5.468;2022-07-29T01:11:46;59548.63;;;-143.24;100.00
68075;BME280;54864;52.002;5.468;2022-07-29T01:13:08;59548.63;;;-143.24;100.00
68075;BME280;54864;52.002;5.468;2022-07-29T01:14:31;59548.63;;;-143.24;100.00
68075;BME280;54864;52.002;5.468;2022-07-29T01:15:55;59548.63;;;-143.24;100.00
68075;BME280;54864;52.002;5.468;2022-07-29T01:17:21;59548.63;;;-143.24;100.00
68075;BME280;54864;52.002;5.468;2022-07-29T01:18:46;59548.63;;;-143.24;100.00
68075;BME280;54864;52.002;5.468;2022-07-29T01:20:14;59548.63;;;-143.24;100.00
68075;BME280;54864;52.002;5.468;2022-07-29T01:21:50;59548.63;;;-143.24;100.00
68075;BME280;54864;52.002;5.468;2022-07-29T01:23:44;59548.63;;;-143.24;100.00
68075;BME280;54864;52.002;5.468;2022-07-29T01:25:20;59548.63;;;-143.24;100.00
68075;BME280;54864;52.002;5.468;2022-07-29T01:26:52;59548.63;;;-143.24;100.00
68075;BME280;54864;52.002;5.468;2022-07-29T01:29:49;101503.94;;;18.45;53.79
68075;BME280;54864;52.002;5.468;2022-07-29T01:31:27;101503.63;;;18.50;53.82
68075;BME280;54864;52.002;5.468;2022-07-29T01:32:54;101516.00;;;18.51;53.62
68075;BME280;54864;52.002;5.468;2022-07-29T01:34:31;101514.38;;;18.35;53.91
68075;BME280;54864;52.002;5.468;2022-07-29T01:35:57;101513.44;;;18.49;53.82
68075;BME280;54864;52.002;5.468;2022-07-29T01:37:24;101520.88;;;18.31;54.34
68075;BME280;54864;52.002;5.468;2022-07-29T01:38:54;101519.75;;;18.48;53.81
68075;BME280;54864;52.002;5.468;2022-07-29T01:40:21;101521.56;;;18.48;53.89
68075;BME280;54864;52.002;5.468;2022-07-29T01:41:50;101521.28;;;18.25;54.54
68075;BME280;54864;52.002;5.468;2022-07-29T01:43:19;101524.50;;;18.30;54.30
68075;BME280;54864;52.002;5.468;2022-07-29T01:44:53;101523.16;;;18.50;54.14
68075;BME280;54864;52.002;5.468;2022-07-29T01:46:21;101517.59;;;18.41;53.83
68075;BME280;54864;52.002;5.468;2022-07-29T01:47:52;101524.72;;;18.67;53.52
68075;BME280;54864;52.002;5.468;2022-07-29T01:49:22;101532.03;;;18.51;53.51
68075;BME280;54864;52.002;5.468;2022-07-29T01:50:50;101531.41;;;18.60;53.48
68075;BME280;54864;52.002;5.468;2022-07-29T01:52:20;101532.47;;;18.57;53.76
68075;BME280;54864;52.002;5.468;2022-07-29T01:53:49;101530.75;;;18.56;53.38
68075;BME280;54864;52.002;5.468;2022-07-29T01:55:16;101533.94;;;18.76;53.23
68075;BME280;54864;52.002;5.468;2022-07-29T01:56:40;101526.47;;;18.54;53.78
68075;BME280;54864;52.002;5.468;2022-07-29T01:58:03;101533.22;;;18.59;53.44
68075;BME280;54864;52.002;5.468;2022-07-29T01:59:28;101533.19;;;18.74;53.04
68075;BME280;54864;52.002;5.468;2022-07-29T02:00:52;101531.09;;;18.91;53.08
68075;BME280;54864;52.002;5.468;2022-07-29T02:02:16;101538.25;;;19.04;52.07
68075;BME280;54864;52.002;5.468;2022-07-29T02:03:43;101524.47;;;18.97;52.85
68075;BME280;54864;52.002;5.468;2022-07-29T02:05:08;101532.47;;;18.97;52.70
68075;BME280;54864;52.002;5.468;2022-07-29T02:06:35;101526.81;;;18.89;53.34
68075;BME280;54864;52.002;5.468;2022-07-29T02:08:00;101528.94;;;18.96;53.48
68075;BME280;54864;52.002;5.468;2022-07-29T02:09:25;101523.75;;;18.68;53.07
68075;BME280;54864;52.002;5.468;2022-07-29T02:10:48;101532.25;;;18.87;52.59
68075;BME280;54864;52.002;5.468;2022-07-29T02:12:13;101523.50;;;18.58;53.21
68075;BME280;54864;52.002;5.468;2022-07-29T02:13:36;101524.81;;;18.65;53.36
68075;BME280;54864;52.002;5.468;2022-07-29T02:15:01;101522.69;;;18.71;53.23
68075;BME280;54864;52.002;5.468;2022-07-29T02:16:28;101516.09;;;18.76;53.54
68075;BME280;54864;52.002;5.468;2022-07-29T02:17:54;101521.38;;;18.90;53.12
68075;BME280;54864;52.002;5.468;2022-07-29T02:19:19;101519.13;;;18.97;52.58
68075;BME280;54864;52.002;5.468;2022-07-29T02:20:46;101512.78;;;18.85;52.61
68075;BME280;54864;52.002;5.468;2022-07-29T02:22:11;101514.81;;;18.82;52.62
68075;BME280;54864;52.002;5.468;2022-07-29T02:23:35;101518.97;;;18.73;53.43
68075;BME280;54864;52.002;5.468;2022-07-29T02:25:00;101517.16;;;18.74;53.26
68075;BME280;54864;52.002;5.468;2022-07-29T02:26:23;101514.53;;;18.59;53.26
68075;BME280;54864;52.002;5.468;2022-07-29T02:27:49;101525.28;;;18.85;53.16
68075;BME280;54864;52.002;5.468;2022-07-29T02:29:13;101512.13;;;18.82;52.86
68075;BME280;54864;52.002;5.468;2022-07-29T02:30:38;101509.06;;;18.88;53.14
68075;BME280;54864;52.002;5.468;2022-07-29T02:32:05;101514.94;;;18.93;52.92
68075;BME280;54864;52.002;5.468;2022-07-29T02:33:30;101512.06;;;18.56;53.46
68075;BME280;54864;52.002;5.468;2022-07-29T02:34:53;101503.81;;;18.47;53.44
68075;BME280;54864;52.002;5.468;2022-07-29T02:36:16;101499.66;;;18.55;54.00
68075;BME280;54864;52.002;5.468;2022-07-29T02:37:39;101501.59;;;18.53;53.41
68075;BME280;54864;52.002;5.468;2022-07-29T02:39:03;101500.69;;;18.67;53.52
68075;BME280;54864;52.002;5.468;2022-07-29T02:40:25;101496.69;;;18.60;53.65
68075;BME280;54864;52.002;5.468;2022-07-29T02:41:50;101497.75;;;18.57;53.96
68075;BME280;54864;52.002;5.468;2022-07-29T02:43:14;101490.25;;;18.37;54.25
68075;BME280;54864;52.002;5.468;2022-07-29T02:44:36;101493.69;;;18.52;54.24
68075;BME280;54864;52.002;5.468;2022-07-29T02:45:59;101498.59;;;18.45;53.84
68075;BME280;54864;52.002;5.468;2022-07-29T02:47:30;101501.56;;;18.41;53.88
68075;BME280;54864;52.002;5.468;2022-07-29T02:48:58;101508.09;;;18.49;53.62
68075;BME280;54864;52.002;5.468;2022-07-29T02:50:29;101506.41;;;18.61;53.69
68075;BME280;54864;52.002;5.468;2022-07-29T02:51:57;101501.97;;;18.61;53.71
68075;BME280;54864;52.002;5.468;2022-07-29T02:53:23;101503.66;;;18.62;53.42
68075;BME280;54864;52.002;5.468;2022-07-29T02:54:49;101491.75;;;18.54;54.49
68075;BME280;54864;52.002;5.468;2022-07-29T02:56:16;101493.69;;;18.52;53.62
68075;BME280;54864;52.002;5.468;2022-07-29T02:57:42;101498.25;;;18.77;53.48
68075;BME280;54864;52.002;5.468;2022-07-29T02:59:09;101504.44;;;18.77;53.41
68075;BME280;54864;52.002;5.468;2022-07-29T03:00:37;101500.13;;;18.22;54.38
68075;BME280;54864;52.002;5.468;2022-07-29T03:02:01;101506.25;;;18.37;54.28
68075;BME280;54864;52.002;5.468;2022-07-29T03:03:29;101508.41;;;18.45;55.06
68075;BME280;54864;52.002;5.468;2022-07-29T03:04:55;101498.34;;;18.35;54.15
68075;BME280;54864;52.002;5.468;2022-07-29T03:06:21;101490.84;;;18.28;54.48
68075;BME280;54864;52.002;5.468;2022-07-29T03:07:47;101496.03;;;18.44;54.11
68075;BME280;54864;52.002;5.468;2022-07-29T03:09:12;101491.13;;;18.50;53.75
68075;BME280;54864;52.002;5.468;2022-07-29T03:10:34;101487.25;;;18.42;54.33
68075;BME280;54864;52.002;5.468;2022-07-29T03:11:57;101488.75;;;18.46;53.84
68075;BME280;54864;52.002;5.468;2022-07-29T03:13:19;101480.31;;;18.12;54.93
68075;BME280;54864;52.002;5.468;2022-07-29T03:14:42;101474.97;;;18.12;55.09
68075;BME280;54864;52.002;5.468;2022-07-29T03:16:06;101476.78;;;18.12;54.83
68075;BME280;54864;52.002;5.468;2022-07-29T03:17:30;101476.53;;;18.02;54.92
68075;BME280;54864;52.002;5.468;2022-07-29T03:18:55;101461.84;;;17.82;55.23
68075;BME280;54864;52.002;5.468;2022-07-29T03:20:17;101475.78;;;18.00;55.00
68075;BME280;54864;52.002;5.468;2022-07-29T03:21:40;101466.22;;;18.10;54.87
68075;BME280;54864;52.002;5.468;2022-07-29T03:23:01;101474.94;;;18.26;54.90
68075;BME280;54864;52.002;5.468;2022-07-29T03:24:25;101484.16;;;18.08;54.57
68075;BME280;54864;52.002;5.468;2022-07-29T03:25:52;101470.09;;;17.92;55.23
68075;BME280;54864;52.002;5.468;2022-07-29T03:27:29;101480.81;;;18.04;54.98
68075;BME280;54864;52.002;5.468;2022-07-29T03:28:51;101478.56;;;18.25;54.67
68075;BME280;54864;52.002;5.468;2022-07-29T03:30:13;101471.72;;;18.21;54.83
68075;BME280;54864;52.002;5.468;2022-07-29T03:31:36;101468.38;;;18.18;54.98
68075;BME280;54864;52.002;5.468;2022-07-29T03:32:57;101466.06;;;18.26;54.56
68075;BME280;54864;52.002;5.468;2022-07-29T03:34:21;101462.28;;;18.16;54.86
68075;BME280;54864;52.002;5.468;2022-07-29T03:35:42;101463.41;;;17.99;54.67
68075;BME280;54864;52.002;5.468;2022-07-29T03:37:05;101458.28;;;17.96;55.13
68075;BME280;54864;52.002;5.468;2022-07-29T03:38:29;101456.16;;;18.01;54.96
68075;BME280;54864;52.002;5.468;2022-07-29T03:39:52;101458.22;;;18.10;55.04
68075;BME280;54864;52.002;5.468;2022-07-29T03:41:18;101457.13;;;17.73;55.59
68075;BME280;54864;52.002;5.468;2022-07-29T03:42:42;101451.94;;;17.84;55.64
68075;BME280;54864;52.002;5.468;2022-07-29T03:44:05;101453.13;;;17.93;55.32
68075;BME280;54864;52.002;5.468;2022-07-29T03:45:29;101450.56;;;17.91;55.35
68075;BME280;54864;52.002;5.468;2022-07-29T03:46:53;101438.59;;;17.84;55.67
68075;BME280;54864;52.002;5.468;2022-07-29T03:48:20;101445.88;;;17.95;55.48
68075;BME280;54864;52.002;5.468;2022-07-29T03:49:47;101449.00;;;17.74;55.74
68075;BME280;54864;52.002;5.468;2022-07-29T03:51:10;101449.41;;;17.95;55.26
68075;BME280;54864;52.002;5.468;2022-07-29T03:52:32;101453.50;;;18.01;55.33
68075;BME280;54864;52.002;5.468;2022-07-29T03:53:54;101455.84;;;18.05;54.98
68075;BME280;54864;52.002;5.468;2022-07-29T03:55:16;101460.63;;;18.00;55.62
68075;BME280;54864;52.002;5.468;2022-07-29T03:56:39;101464.84;;;18.17;54.90
68075;BME280;54864;52.002;5.468;2022-07-29T03:58:05;101463.34;;;18.13;55.05
68075;BME280;54864;52.002;5.468;2022-07-29T03:59:30;101463.81;;;17.93;55.12
68075;BME280;54864;52.002;5.468;2022-07-29T04:00:54;101473.34;;;18.24;55.03
68075;BME280;54864;52.002;5.468;2022-07-29T04:02:16;101473.81;;;18.16;55.17
68075;BME280;54864;52.002;5.468;2022-07-29T04:03:39;101478.06;;;18.33;54.59
68075;BME280;54864;52.002;5.468;2022-07-29T04:05:03;101471.53;;;18.37;53.97
68075;BME280;54864;52.002;5.468;2022-07-29T04:06:25;101474.34;;;18.48;54.20
68075;BME280;54864;52.002;5.468;2022-07-29T04:07:47;101474.34;;;18.48;54.55
68075;BME280;54864;52.002;5.468;2022-07-29T04:09:10;101474.25;;;18.50;54.13
68075;BME280;54864;52.002;5.468;2022-07-29T04:10:34;101474.34;;;18.48;54.33
68075;BME280;54864;52.002;5.468;2022-07-29T04:11:56;101469.53;;;18.41;54.02
68075;BME280;54864;52.002;5.468;2022-07-29T04:13:17;101473.06;;;18.41;53.72
68075;BME280;54864;52.002;5.468;2022-07-29T04:14:39;101475.38;;;18.33;53.83
68075;BME280;54864;52.002;5.468;2022-07-29T04:16:01;101466.97;;;18.12;53.94
68075;BME280;54864;52.002;5.468;2022-07-29T04:17:23;101471.44;;;18.12;54.47
68075;BME280;54864;52.002;5.468;2022-07-29T04:18:44;101462.19;;;18.17;54.62
68075;BME280;54864;52.002;5.468;2022-07-29T04:20:09;101456.00;;;18.17;55.06
68075;BME280;54864;52.002;5.468;2022-07-29T04:21:36;101457.91;;;18.15;54.83
68075;BME280;54864;52.002;5.468;2022-07-29T04:22:59;101451.22;;;18.22;54.31
68075;BME280;54864;52.002;5.468;2022-07-29T04:24:20;101445.22;;;18.18;54.51
68075;BME280;54864;52.002;5.468;2022-07-29T04:25:42;101443.91;;;18.11;54.53
68075;BME280;54864;52.002;5.468;2022-07-29T04:27:05;101438.22;;;18.03;54.60
68075;BME280;54864;52.002;5.468;2022-07-29T04:28:26;101436.28;;;17.92;55.26
68075;BME280;54864;52.002;5.468;2022-07-29T04:29:48;101427.94;;;17.84;55.14
68075;BME280;54864;52.002;5.468;2022-07-29T04:31:09;101432.81;;;17.78;55.04
68075;BME280;54864;52.002;5.468;2022-07-29T04:32:32;101442.88;;;17.87;54.82
68075;BME280;54864;52.002;5.468;2022-07-29T04:33:54;101438.28;;;17.89;55.11
68075;BME280;54864;52.002;5.468;2022-07-29T04:35:17;101442.56;;;17.91;55.30
68075;BME280;54864;52.002;5.468;2022-07-29T04:36:39;101447.47;;;17.85;54.99
68075;BME280;54864;52.002;5.468;2022-07-29T04:38:02;101454.66;;;17.70;55.71
68075;BME280;54864;52.002;5.468;2022-07-29T04:39:23;101458.28;;;17.26;56.60
68075;BME280;54864;52.002;5.468;2022-07-29T04:40:46;101462.66;;;17.41;56.62
68075;BME280;54864;52.002;5.468;2022-07-29T04:42:08;101460.44;;;17.48;55.92
68075;BME280;54864;52.002;5.468;2022-07-29T04:43:30;101465.69;;;17.50;56.39
68075;BME280;54864;52.002;5.468;2022-07-29T04:44:52;101460.44;;;17.48;56.08
68075;BME280;54864;52.002;5.468;2022-07-29T04:46:14;101469.97;;;17.52;56.01
68075;BME280;54864;52.002;5.468;2022-07-29T04:47:37;101475.13;;;17.69;55.72
68075;BME280;54864;52.002;5.468;2022-07-29T04:48:58;101465.38;;;17.83;55.57
68075;BME280;54864;52.002;5.468;2022-07-29T04:50:21;101455.91;;;17.91;55.53
68075;BME280;54864;52.002;5.468;2022-07-29T04:51:44;101463.41;;;17.99;55.07
68075;BME280;54864;52.002;5.468;2022-07-29T04:53:08;101463.00;;;18.05;54.53
68075;BME280;54864;52.002;5.468;2022-07-29T04:54:30;101457.00;;;18.01;54.67
68075;BME280;54864;52.002;5.468;2022-07-29T04:55:51;101458.97;;;18.12;54.75
68075;BME280;54864;52.002;5.468;2022-07-29T04:57:13;101454.03;;;18.06;54.59
68075;BME280;54864;52.002;5.468;2022-07-29T04:58:35;101456.97;;;17.89;54.79
68075;BME280;54864;52.002;5.468;2022-07-29T04:59:57;101466.94;;;17.99;54.97
68075;BME280;54864;52.002;5.468;2022-07-29T05:01:18;101461.66;;;17.85;55.39
68075;BME280;54864;52.002;5.468;2022-07-29T05:02:41;101464.13;;;17.88;55.24
68075;BME280;54864;52.002;5.468;2022-07-29T05:04:03;101471.41;;;17.72;55.15
68075;BME280;54864;52.002;5.468;2022-07-29T05:05:26;101470.66;;;17.70;55.72
68075;BME280;54864;52.002;5.468;2022-07-29T05:06:49;101485.22;;;17.64;55.13
68075;BME280;54864;52.002;5.468;2022-07-29T05:08:11;101487.06;;;17.91;54.99
68075;BME280;54864;52.002;5.468;2022-07-29T05:09:33;101499.31;;;18.08;54.67
68075;BME280;54864;52.002;5.468;2022-07-29T05:10:54;101494.41;;;18.14;54.18
68075;BME280;54864;52.002;5.468;2022-07-29T05:12:16;101502.50;;;18.27;54.42
68075;BME280;54864;52.002;5.468;2022-07-29T05:13:39;101490.88;;;18.41;54.81
68075;BME280;54864;52.002;5.468;2022-07-29T05:15:01;101486.41;;;18.41;54.33
68075;BME280;54864;52.002;5.468;2022-07-29T05:16:23;101481.63;;;18.59;54.61
68075;BME280;54864;52.002;5.468;2022-07-29T05:17:44;101478.09;;;18.58;53.61
68075;BME280;54864;52.002;5.468;2022-07-29T05:19:06;101470.78;;;18.75;53.27
68075;BME280;54864;52.002;5.468;2022-07-29T05:20:29;101479.00;;;18.72;53.32
68075;BME280;54864;52.002;5.468;2022-07-29T05:21:52;101479.41;;;18.65;53.02
68075;BME280;54864;52.002;5.468;2022-07-29T05:23:13;101483.41;;;18.46;52.91
68075;BME280;54864;52.002;5.468;2022-07-29T05:24:35;101493.38;;;18.56;53.43
68075;BME280;54864;52.002;5.468;2022-07-29T05:25:57;101494.72;;;18.76;53.72
68075;BME280;54864;52.002;5.468;2022-07-29T05:27:18;101497.16;;;18.66;52.80
68075;BME280;54864;52.002;5.468;2022-07-29T05:28:41;101492.88;;;18.77;52.81
68075;BME280;54864;52.002;5.468;2022-07-29T05:30:03;101494.19;;;18.84;53.37
68075;BME280;54864;52.002;5.468;2022-07-29T05:31:27;101493.63;;;18.66;52.31
68075;BME280;54864;52.002;5.468;2022-07-29T05:32:49;101492.59;;;18.42;52.87
68075;BME280;54864;52.002;5.468;2022-07-29T05:34:11;101501.84;;;18.63;53.71
68075;BME280;54864;52.002;5.468;2022-07-29T05:35:35;101499.41;;;18.73;53.67
68075;BME280;54864;52.002;5.468;2022-07-29T05:36:57;101490.25;;;18.89;53.41
68075;BME280;54864;52.002;5.468;2022-07-29T05:38:19;101492.94;;;18.89;53.27
68075;BME280;54864;52.002;5.468;2022-07-29T05:39:42;101495.91;;;18.97;52.70
68075;BME280;54864;52.002;5.468;2022-07-29T05:41:04;101495.19;;;18.95;52.73
68075;BME280;54864;52.002;5.468;2022-07-29T05:42:27;101499.34;;;18.99;52.11
68075;BME280;54864;52.002;5.468;2022-07-29T05:43:49;101493.47;;;18.94;52.55
68075;BME280;54864;52.002;5.468;2022-07-29T05:45:11;101495.50;;;18.91;52.79
68075;BME280;54864;52.002;5.468;2022-07-29T05:46:33;101495.50;;;19.04;53.13
68075;BME280;54864;52.002;5.468;2022-07-29T05:47:55;101502.34;;;19.08;52.59
68075;BME280;54864;52.002;5.468;2022-07-29T05:49:17;101497.19;;;18.92;53.13
68075;BME280;54864;52.002;5.468;2022-07-29T05:50:40;101501.00;;;18.75;52.93
68075;BME280;54864;52.002;5.468;2022-07-29T05:52:02;101500.16;;;18.75;52.78
68075;BME280;54864;52.002;5.468;2022-07-29T05:53:24;101504.22;;;18.67;53.33
68075;BME280;54864;52.002;5.468;2022-07-29T05:54:47;101512.59;;;18.88;53.63
68075;BME280;54864;52.002;5.468;2022-07-29T05:56:09;101508.09;;;19.02;53.27
68075;BME280;54864;52.002;5.468;2022-07-29T05:57:31;101514.31;;;19.02;53.08
68075;BME280;54864;52.002;5.468;2022-07-29T05:58:53;101516.66;;;18.94;52.19
68075;BME280;54864;52.002;5.468;2022-07-29T06:00:16;101530.13;;;18.92;53.81
68075;BME280;54864;52.002;5.468;2022-07-29T06:01:38;101526.88;;;18.75;53.16
68075;BME280;54864;52.002;5.468;2022-07-29T06:03:00;101536.13;;;18.96;52.99
68075;BME280;54864;52.002;5.468;2022-07-29T06:04:22;101528.41;;;19.04;53.16
68075;BME280;54864;52.002;5.468;2022-07-29T06:05:46;101528.75;;;19.12;52.36
68075;BME280;54864;52.002;5.468;2022-07-29T06:07:08;101531.53;;;19.11;52.60
68075;BME280;54864;52.002;5.468;2022-07-29T06:08:31;101535.91;;;19.12;52.53
68075;BME280;54864;52.002;5.468;2022-07-29T06:09:54;101537.28;;;19.17;52.72
68075;BME280;54864;52.002;5.468;2022-07-29T06:11:16;101541.56;;;19.07;53.16
68075;BME280;54864;52.002;5.468;2022-07-29T06:12:38;101540.50;;;19.10;53.13
68075;BME280;54864;52.002;5.468;2022-07-29T06:14:00;101550.44;;;19.20;52.56
68075;BME280;54864;52.002;5.468;2022-07-29T06:15:23;101544.56;;;19.28;52.63
68075;BME280;54864;52.002;5.468;2022-07-29T06:16:46;101553.44;;;19.28;52.21
68075;BME280;54864;52.002;5.468;2022-07-29T06:18:09;101546.91;;;19.32;51.99
68075;BME280;54864;52.002;5.468;2022-07-29T06:19:31;101550.97;;;19.25;52.96
68075;BME280;54864;52.002;5.468;2022-07-29T06:20:57;101548.94;;;19.16;53.86
68075;BME280;54864;52.002;5.468;2022-07-29T06:22:19;101543.81;;;19.13;53.67
68075;BME280;54864;52.002;5.468;2022-07-29T06:23:41;101543.19;;;19.22;52.98
68075;BME280;54864;52.002;5.468;2022-07-29T06:25:03;101538.34;;;19.27;53.47
68075;BME280;54864;52.002;5.468;2022-07-29T06:26:25;101542.31;;;19.35;53.06
68075;BME280;54864;52.002;5.468;2022-07-29T06:27:47;101551.06;;;19.37;52.63
68075;BME280;54864;52.002;5.468;2022-07-29T06:29:10;101535.22;;;19.46;53.58
68075;BME280;54864;52.002;5.468;2022-07-29T06:30:32;101532.78;;;19.43;53.62
68075;BME280;54864;52.002;5.468;2022-07-29T06:31:54;101538.88;;;19.45;52.63
68075;BME280;54864;52.002;5.468;2022-07-29T06:33:17;101534.94;;;19.51;53.21
68075;BME280;54864;52.002;5.468;2022-07-29T06:34:39;101534.28;;;19.35;53.64
68075;BME280;54864;52.002;5.468;2022-07-29T06:36:04;101531.28;;;19.39;53.29
68075;BME280;54864;52.002;5.468;2022-07-29T06:37:27;101534.50;;;19.44;52.85
68075;BME280;54864;52.002;5.468;2022-07-29T06:38:49;101535.59;;;19.54;53.44
68075;BME280;54864;52.002;5.468;2022-07-29T06:40:11;101535.28;;;19.59;53.15
68075;BME280;54864;52.002;5.468;2022-07-29T06:41:51;101532.91;;;19.67;52.72
68075;BME280;54864;52.002;5.468;2022-07-29T06:43:14;101536.97;;;19.73;52.69
68075;BME280;54864;52.002;5.468;2022-07-29T06:44:36;101538.97;;;19.44;52.68
68075;BME280;54864;52.002;5.468;2022-07-29T06:45:59;101538.25;;;19.42;53.22
68075;BME280;54864;52.002;5.468;2022-07-29T06:47:21;101538.69;;;19.61;53.24
68075;BME280;54864;52.002;5.468;2022-07-29T06:48:44;101548.72;;;19.70;52.92
68075;BME280;54864;52.002;5.468;2022-07-29T06:50:07;101534.56;;;19.81;52.52
68075;BME280;54864;52.002;5.468;2022-07-29T06:51:33;101545.56;;;19.89;52.37
68075;BME280;54864;52.002;5.468;2022-07-29T06:52:55;101539.72;;;19.84;52.35
68075;BME280;54864;52.002;5.468;2022-07-29T06:54:17;101538.97;;;19.82;52.08
68075;BME280;54864;52.002;5.468;2022-07-29T06:55:39;101542.94;;;19.76;51.95
68075;BME280;54864;52.002;5.468;2022-07-29T06:57:00;101542.16;;;19.87;51.83
68075;BME280;54864;52.002;5.468;2022-07-29T06:58:22;101538.50;;;19.88;52.33
68075;BME280;54864;52.002;5.468;2022-07-29T06:59:44;101542.91;;;19.89;52.26
68075;BME280;54864;52.002;5.468;2022-07-29T07:01:06;101538.50;;;19.88;52.24
68075;BME280;54864;52.002;5.468;2022-07-29T07:02:29;101549.84;;;19.91;52.20
68075;BME280;54864;52.002;5.468;2022-07-29T07:03:51;101543.06;;;19.75;51.60
68075;BME280;54864;52.002;5.468;2022-07-29T07:05:13;101532.59;;;19.95;52.27
68075;BME280;54864;52.002;5.468;2022-07-29T07:06:36;101550.06;;;20.25;52.44
68075;BME280;54864;52.002;5.468;2022-07-29T07:07:59;101547.34;;;20.38;51.61
68075;BME280;54864;52.002;5.468;2022-07-29T07:09:21;101555.81;;;20.32;51.42
68075;BME280;54864;52.002;5.468;2022-07-29T07:10:43;101541.34;;;20.34;51.96
68075;BME280;54864;52.002;5.468;2022-07-29T07:12:04;101555.75;;;20.68;50.71
68075;BME280;54864;52.002;5.468;2022-07-29T07:13:27;101551.81;;;20.85;50.83
68075;BME280;54864;52.002;5.468;2022-07-29T07:14:54;101552.38;;;20.77;50.85
68075;BME280;54864;52.002;5.468;2022-07-29T07:16:16;101550.88;;;20.62;49.41